sensor_id;sensor_type;location;lat;lon;timestamp;P1;durP1;ratioP1;P2;durP2;ratioP2
19016;SDS011;9641;51.494;6.670;2023-01-16T00:00:34;7.13;;;2.37;;
19016;SDS011;9641;51.494;6.670;2023-01-16T00:03:01;4.83;;;1.20;;
19016;SDS011;9641;51.494;6.670;2023-01-16T00:05:32;6.70;;;1.63;;
19016;SDS011;9641;51.494;6.670;2023-01-16T00:08:01;2.57;;;1.63;;
19016;SDS011;9641;51.494;6.670;2023-01-16T00:10:28;3.83;;;1.73;;
19016;SDS011;9641;51.494;6.670;2023-01-16T00:12:55;3.90;;;1.63;;
19016;SDS011;9641;51.494;6.670;2023-01-16T00:15:22;7.60;;;1.67;;
19016;SDS011;9641;51.494;6.670;2023-01-16T00:17:52;5.43;;;1.80;;
19016;SDS011;9641;51.494;6.670;2023-01-16T00:20:19;2.17;;;1.60;;
19016;SDS011;9641;51.494;6.670;2023-01-16T00:22:48;7.37;;;1.80;;
19016;SDS011;9641;51.494;6.670;2023-01-16T00:25:15;2.97;;;1.20;;
19016;SDS011;9641;51.494;6.670;2023-01-16T00:27:43;12.17;;;1.47;;
19016;SDS011;9641;51.494;6.670;2023-01-16T00:30:10;5.93;;;1.43;;
19016;SDS011;9641;51.494;6.670;2023-01-16T00:32:37;2.57;;;1.63;;
19016;SDS011;9641;51.494;6.670;2023-01-16T00:35:12;4.57;;;1.07;;
19016;SDS011;9641;51.494;6.670;2023-01-16T00:37:39;2.97;;;1.50;;
19016;SDS011;9641;51.494;6.670;2023-01-16T00:40:09;2.00;;;1.37;;
19016;SDS011;9641;51.494;6.670;2023-01-16T00:42:38;3.70;;;1.53;;
19016;SDS011;9641;51.494;6.670;2023-01-16T00:45:05;4.53;;;1.83;;
19016;SDS011;9641;51.494;6.670;2023-01-16T00:47:33;3.40;;;1.77;;
19016;SDS011;9641;51.494;6.670;2023-01-16T00:50:00;2.13;;;1.50;;
19016;SDS011;9641;51.494;6.670;2023-01-16T00:52:27;2.43;;;1.67;;
19016;SDS011;9641;51.494;6.670;2023-01-16T00:54:55;5.13;;;1.47;;
19016;SDS011;9641;51.494;6.670;2023-01-16T00:57:24;3.70;;;1.47;;
19016;SDS011;9641;51.494;6.670;2023-01-16T00:59:53;2.03;;;1.40;;
19016;SDS011;9641;51.494;6.670;2023-01-16T01:02:20;2.87;;;1.80;;
19016;SDS011;9641;51.494;6.670;2023-01-16T01:04:49;6.70;;;1.70;;
19016;SDS011;9641;51.494;6.670;2023-01-16T01:07:16;1.50;;;1.37;;
19016;SDS011;9641;51.494;6.670;2023-01-16T01:09:43;5.40;;;1.50;;
19016;SDS011;9641;51.494;6.670;2023-01-16T01:12:11;4.43;;;1.47;;
19016;SDS011;9641;51.494;6.670;2023-01-16T01:14:40;2.83;;;1.63;;
19016;SDS011;9641;51.494;6.670;2023-01-16T01:17:07;9.73;;;1.80;;
19016;SDS011;9641;51.494;6.670;2023-01-16T01:19:34;2.77;;;1.60;;
19016;SDS011;9641;51.494;6.670;2023-01-16T01:22:02;5.63;;;1.93;;
19016;SDS011;9641;51.494;6.670;2023-01-16T01:24:29;5.40;;;1.73;;
19016;SDS011;9641;51.494;6.670;2023-01-16T01:26:56;5.00;;;1.67;;
19016;SDS011;9641;51.494;6.670;2023-01-16T01:29:23;1.77;;;1.40;;
19016;SDS011;9641;51.494;6.670;2023-01-16T01:31:52;5.10;;;1.43;;
19016;SDS011;9641;51.494;6.670;2023-01-16T01:34:19;5.40;;;1.47;;
19016;SDS011;9641;51.494;6.670;2023-01-16T01:36:46;5.77;;;1.40;;
19016;SDS011;9641;51.494;6.670;2023-01-16T01:41:49;2.77;;;1.50;;
19016;SDS011;9641;51.494;6.670;2023-01-16T01:44:44;2.30;;;1.40;;
19016;SDS011;9641;51.494;6.670;2023-01-16T01:47:19;9.43;;;1.70;;
19016;SDS011;9641;51.494;6.670;2023-01-16T01:49:52;3.23;;;1.27;;
19016;SDS011;9641;51.494;6.670;2023-01-16T01:52:21;1.77;;;1.30;;
19016;SDS011;9641;51.494;6.670;2023-01-16T01:55:04;6.93;;;1.67;;
19016;SDS011;9641;51.494;6.670;2023-01-16T01:57:34;1.50;;;1.20;;
19016;SDS011;9641;51.494;6.670;2023-01-16T02:00:12;8.67;;;1.80;;
19016;SDS011;9641;51.494;6.670;2023-01-16T02:02:47;4.37;;;1.27;;
19016;SDS011;9641;51.494;6.670;2023-01-16T02:05:19;5.93;;;1.60;;
19016;SDS011;9641;51.494;6.670;2023-01-16T02:07:53;1.97;;;1.23;;
19016;SDS011;9641;51.494;6.670;2023-01-16T02:10:22;2.20;;;1.37;;
19016;SDS011;9641;51.494;6.670;2023-01-16T02:12:57;4.10;;;1.50;;
19016;SDS011;9641;51.494;6.670;2023-01-16T02:15:27;5.13;;;1.40;;
19016;SDS011;9641;51.494;6.670;2023-01-16T02:17:56;5.90;;;1.70;;
19016;SDS011;9641;51.494;6.670;2023-01-16T02:20:48;3.63;;;1.40;;
19016;SDS011;9641;51.494;6.670;2023-01-16T02:26:45;2.27;;;1.40;;
19016;SDS011;9641;51.494;6.670;2023-01-16T02:29:40;6.80;;;1.50;;
19016;SDS011;9641;51.494;6.670;2023-01-16T02:32:31;7.97;;;1.77;;
19016;SDS011;9641;51.494;6.670;2023-01-16T02:35:13;5.93;;;2.37;;
19016;SDS011;9641;51.494;6.670;2023-01-16T02:37:49;3.67;;;2.00;;
19016;SDS011;9641;51.494;6.670;2023-01-16T02:40:23;5.43;;;1.80;;
19016;SDS011;9641;51.494;6.670;2023-01-16T02:43:04;4.90;;;1.40;;
19016;SDS011;9641;51.494;6.670;2023-01-16T02:45:41;8.87;;;1.90;;
19016;SDS011;9641;51.494;6.670;2023-01-16T02:48:16;2.70;;;1.47;;
19016;SDS011;9641;51.494;6.670;2023-01-16T02:50:52;4.97;;;1.40;;
19016;SDS011;9641;51.494;6.670;2023-01-16T02:53:26;5.43;;;1.87;;
19016;SDS011;9641;51.494;6.670;2023-01-16T02:55:58;5.53;;;1.93;;
19016;SDS011;9641;51.494;6.670;2023-01-16T02:58:33;5.30;;;1.60;;
19016;SDS011;9641;51.494;6.670;2023-01-16T03:01:02;7.07;;;1.80;;
19016;SDS011;9641;51.494;6.670;2023-01-16T03:03:41;3.50;;;1.97;;
19016;SDS011;9641;51.494;6.670;2023-01-16T03:06:14;3.00;;;1.60;;
19016;SDS011;9641;51.494;6.670;2023-01-16T03:08:52;4.73;;;2.03;;
19016;SDS011;9641;51.494;6.670;2023-01-16T03:11:30;4.97;;;1.83;;
19016;SDS011;9641;51.494;6.670;2023-01-16T03:14:02;4.80;;;1.43;;
19016;SDS011;9641;51.494;6.670;2023-01-16T03:16:39;5.07;;;2.10;;
19016;SDS011;9641;51.494;6.670;2023-01-16T03:19:19;6.00;;;2.50;;
19016;SDS011;9641;51.494;6.670;2023-01-16T03:21:58;4.03;;;1.80;;
19016;SDS011;9641;51.494;6.670;2023-01-16T03:24:36;6.77;;;1.97;;
19016;SDS011;9641;51.494;6.670;2023-01-16T03:27:19;8.43;;;2.07;;
19016;SDS011;9641;51.494;6.670;2023-01-16T03:29:57;6.63;;;1.90;;
19016;SDS011;9641;51.494;6.670;2023-01-16T03:32:31;1.97;;;1.50;;
19016;SDS011;9641;51.494;6.670;2023-01-16T03:35:08;2.57;;;1.40;;
19016;SDS011;9641;51.494;6.670;2023-01-16T03:37:40;5.20;;;1.63;;
19016;SDS011;9641;51.494;6.670;2023-01-16T03:40:11;4.33;;;1.60;;
19016;SDS011;9641;51.494;6.670;2023-01-16T03:42:42;3.07;;;1.67;;
19016;SDS011;9641;51.494;6.670;2023-01-16T03:45:21;2.80;;;1.47;;
19016;SDS011;9641;51.494;6.670;2023-01-16T03:47:54;4.10;;;1.40;;
19016;SDS011;9641;51.494;6.670;2023-01-16T03:50:28;2.30;;;1.73;;
19016;SDS011;9641;51.494;6.670;2023-01-16T03:52:58;3.33;;;1.73;;
19016;SDS011;9641;51.494;6.670;2023-01-16T03:55:30;4.20;;;1.60;;
19016;SDS011;9641;51.494;6.670;2023-01-16T03:58:04;2.63;;;1.77;;
19016;SDS011;9641;51.494;6.670;2023-01-16T04:00:36;2.40;;;1.90;;
19016;SDS011;9641;51.494;6.670;2023-01-16T04:03:10;7.80;;;2.57;;
19016;SDS011;9641;51.494;6.670;2023-01-16T04:05:49;3.53;;;2.00;;
19016;SDS011;9641;51.494;6.670;2023-01-16T04:08:22;6.37;;;2.30;;
19016;SDS011;9641;51.494;6.670;2023-01-16T04:10:54;2.90;;;2.00;;
19016;SDS011;9641;51.494;6.670;2023-01-16T04:13:22;3.97;;;2.10;;
19016;SDS011;9641;51.494;6.670;2023-01-16T04:15:56;3.10;;;1.90;;
19016;SDS011;9641;51.494;6.670;2023-01-16T04:18:28;4.57;;;1.87;;
19016;SDS011;9641;51.494;6.670;2023-01-16T04:21:02;3.03;;;1.60;;
19016;SDS011;9641;51.494;6.670;2023-01-16T04:23:31;2.40;;;1.40;;
19016;SDS011;9641;51.494;6.670;2023-01-16T04:26:01;3.00;;;1.40;;
19016;SDS011;9641;51.494;6.670;2023-01-16T04:28:28;1.97;;;1.27;;
19016;SDS011;9641;51.494;6.670;2023-01-16T04:30:56;3.73;;;1.70;;
19016;SDS011;9641;51.494;6.670;2023-01-16T04:33:24;5.10;;;1.40;;
19016;SDS011;9641;51.494;6.670;2023-01-16T04:35:51;3.40;;;1.57;;
19016;SDS011;9641;51.494;6.670;2023-01-16T04:38:19;1.47;;;1.37;;
19016;SDS011;9641;51.494;6.670;2023-01-16T04:40:47;2.90;;;1.40;;
19016;SDS011;9641;51.494;6.670;2023-01-16T04:43:15;1.23;;;1.10;;
19016;SDS011;9641;51.494;6.670;2023-01-16T04:45:42;2.27;;;1.20;;
19016;SDS011;9641;51.494;6.670;2023-01-16T04:48:09;1.87;;;1.20;;
19016;SDS011;9641;51.494;6.670;2023-01-16T04:50:36;1.87;;;1.17;;
19016;SDS011;9641;51.494;6.670;2023-01-16T04:53:03;0.80;;;0.80;;
19016;SDS011;9641;51.494;6.670;2023-01-16T04:55:32;1.30;;;1.00;;
19016;SDS011;9641;51.494;6.670;2023-01-16T04:57:59;1.37;;;1.03;;
19016;SDS011;9641;51.494;6.670;2023-01-16T05:00:27;5.87;;;1.30;;
19016;SDS011;9641;51.494;6.670;2023-01-16T05:02:54;4.53;;;1.43;;
19016;SDS011;9641;51.494;6.670;2023-01-16T05:05:21;5.43;;;2.30;;
19016;SDS011;9641;51.494;6.670;2023-01-16T05:07:49;7.00;;;2.60;;
19016;SDS011;9641;51.494;6.670;2023-01-16T05:10:38;5.90;;;2.83;;
19016;SDS011;9641;51.494;6.670;2023-01-16T05:13:07;6.50;;;2.93;;
19016;SDS011;9641;51.494;6.670;2023-01-16T05:15:34;3.90;;;2.53;;
19016;SDS011;9641;51.494;6.670;2023-01-16T05:18:01;7.50;;;3.07;;
19016;SDS011;9641;51.494;6.670;2023-01-16T05:20:28;8.47;;;3.17;;
19016;SDS011;9641;51.494;6.670;2023-01-16T05:22:55;11.60;;;3.33;;
19016;SDS011;9641;51.494;6.670;2023-01-16T05:25:22;9.33;;;3.00;;
19016;SDS011;9641;51.494;6.670;2023-01-16T05:27:52;7.60;;;2.70;;
19016;SDS011;9641;51.494;6.670;2023-01-16T05:30:19;5.33;;;1.97;;
19016;SDS011;9641;51.494;6.670;2023-01-16T05:32:46;2.00;;;1.70;;
19016;SDS011;9641;51.494;6.670;2023-01-16T05:35:13;2.43;;;1.33;;
19016;SDS011;9641;51.494;6.670;2023-01-16T05:37:41;1.90;;;1.60;;
19016;SDS011;9641;51.494;6.670;2023-01-16T05:40:09;4.13;;;1.57;;
19016;SDS011;9641;51.494;6.670;2023-01-16T05:42:37;3.57;;;1.50;;
19016;SDS011;9641;51.494;6.670;2023-01-16T05:45:06;2.70;;;1.13;;
19016;SDS011;9641;51.494;6.670;2023-01-16T05:47:35;3.53;;;1.50;;
19016;SDS011;9641;51.494;6.670;2023-01-16T05:50:04;5.07;;;1.50;;
19016;SDS011;9641;51.494;6.670;2023-01-16T05:52:31;8.40;;;1.70;;
19016;SDS011;9641;51.494;6.670;2023-01-16T05:54:58;2.73;;;1.60;;
19016;SDS011;9641;51.494;6.670;2023-01-16T05:57:30;5.63;;;1.60;;
19016;SDS011;9641;51.494;6.670;2023-01-16T05:59:59;5.00;;;1.67;;
19016;SDS011;9641;51.494;6.670;2023-01-16T06:02:31;4.70;;;1.80;;
19016;SDS011;9641;51.494;6.670;2023-01-16T06:07:36;6.80;;;1.73;;
19016;SDS011;9641;51.494;6.670;2023-01-16T06:10:04;5.23;;;2.20;;
19016;SDS011;9641;51.494;6.670;2023-01-16T06:12:32;7.73;;;2.10;;
19016;SDS011;9641;51.494;6.670;2023-01-16T06:15:02;7.97;;;1.93;;
19016;SDS011;9641;51.494;6.670;2023-01-16T06:17:30;7.47;;;1.50;;
19016;SDS011;9641;51.494;6.670;2023-01-16T06:19:57;4.17;;;1.60;;
19016;SDS011;9641;51.494;6.670;2023-01-16T06:22:27;5.73;;;1.73;;
19016;SDS011;9641;51.494;6.670;2023-01-16T06:24:54;1.60;;;1.50;;
19016;SDS011;9641;51.494;6.670;2023-01-16T06:27:23;3.70;;;1.83;;
19016;SDS011;9641;51.494;6.670;2023-01-16T06:29:53;1.90;;;1.60;;
19016;SDS011;9641;51.494;6.670;2023-01-16T06:32:23;7.00;;;1.53;;
19016;SDS011;9641;51.494;6.670;2023-01-16T06:34:52;6.63;;;1.70;;
19016;SDS011;9641;51.494;6.670;2023-01-16T06:37:20;3.37;;;1.83;;
19016;SDS011;9641;51.494;6.670;2023-01-16T06:39:50;1.77;;;1.30;;
19016;SDS011;9641;51.494;6.670;2023-01-16T06:42:17;3.53;;;1.27;;
19016;SDS011;9641;51.494;6.670;2023-01-16T06:44:45;2.10;;;1.57;;
19016;SDS011;9641;51.494;6.670;2023-01-16T06:47:16;3.90;;;1.53;;
19016;SDS011;9641;51.494;6.670;2023-01-16T06:49:46;2.30;;;1.60;;
19016;SDS011;9641;51.494;6.670;2023-01-16T06:52:15;1.73;;;1.10;;
19016;SDS011;9641;51.494;6.670;2023-01-16T06:54:42;1.37;;;1.10;;
19016;SDS011;9641;51.494;6.670;2023-01-16T06:57:12;3.20;;;1.10;;
19016;SDS011;9641;51.494;6.670;2023-01-16T06:59:40;4.37;;;1.10;;
19016;SDS011;9641;51.494;6.670;2023-01-16T07:02:08;2.77;;;1.00;;
19016;SDS011;9641;51.494;6.670;2023-01-16T07:04:35;2.47;;;1.00;;
19016;SDS011;9641;51.494;6.670;2023-01-16T07:07:02;1.87;;;0.97;;
19016;SDS011;9641;51.494;6.670;2023-01-16T07:09:35;2.20;;;0.90;;
19016;SDS011;9641;51.494;6.670;2023-01-16T07:12:03;2.20;;;1.00;;
19016;SDS011;9641;51.494;6.670;2023-01-16T07:14:30;1.80;;;1.10;;
19016;SDS011;9641;51.494;6.670;2023-01-16T07:17:14;1.23;;;1.13;;
19016;SDS011;9641;51.494;6.670;2023-01-16T07:19:59;2.73;;;1.00;;
19016;SDS011;9641;51.494;6.670;2023-01-16T07:22:44;2.23;;;1.13;;
19016;SDS011;9641;51.494;6.670;2023-01-16T07:25:13;5.47;;;0.80;;
19016;SDS011;9641;51.494;6.670;2023-01-16T07:27:43;4.73;;;1.73;;
19016;SDS011;9641;51.494;6.670;2023-01-16T07:30:14;1.97;;;1.20;;
19016;SDS011;9641;51.494;6.670;2023-01-16T07:32:42;2.57;;;1.20;;
19016;SDS011;9641;51.494;6.670;2023-01-16T07:35:10;4.00;;;1.53;;
19016;SDS011;9641;51.494;6.670;2023-01-16T07:37:38;2.43;;;1.20;;
19016;SDS011;9641;51.494;6.670;2023-01-16T07:40:08;9.20;;;1.63;;
19016;SDS011;9641;51.494;6.670;2023-01-16T07:42:40;1.73;;;1.60;;
19016;SDS011;9641;51.494;6.670;2023-01-16T07:45:09;3.07;;;1.40;;
19016;SDS011;9641;51.494;6.670;2023-01-16T07:47:38;1.53;;;1.33;;
19016;SDS011;9641;51.494;6.670;2023-01-16T07:50:09;1.30;;;1.20;;
19016;SDS011;9641;51.494;6.670;2023-01-16T07:52:36;2.07;;;1.33;;
19016;SDS011;9641;51.494;6.670;2023-01-16T07:55:04;1.30;;;1.20;;
19016;SDS011;9641;51.494;6.670;2023-01-16T07:57:31;2.67;;;1.47;;
19016;SDS011;9641;51.494;6.670;2023-01-16T08:00:06;2.70;;;1.40;;
19016;SDS011;9641;51.494;6.670;2023-01-16T08:02:39;1.57;;;1.30;;
19016;SDS011;9641;51.494;6.670;2023-01-16T08:05:07;2.97;;;1.50;;
19016;SDS011;9641;51.494;6.670;2023-01-16T08:07:35;1.97;;;1.70;;
19016;SDS011;9641;51.494;6.670;2023-01-16T08:10:02;3.30;;;1.80;;
19016;SDS011;9641;51.494;6.670;2023-01-16T08:12:30;4.27;;;1.60;;
19016;SDS011;9641;51.494;6.670;2023-01-16T08:14:57;2.57;;;1.40;;
19016;SDS011;9641;51.494;6.670;2023-01-16T08:17:26;3.10;;;1.83;;
19016;SDS011;9641;51.494;6.670;2023-01-16T08:19:53;2.80;;;1.80;;
19016;SDS011;9641;51.494;6.670;2023-01-16T08:22:21;3.00;;;1.77;;
19016;SDS011;9641;51.494;6.670;2023-01-16T08:24:48;3.73;;;1.77;;
19016;SDS011;9641;51.494;6.670;2023-01-16T08:27:17;2.13;;;1.50;;
19016;SDS011;9641;51.494;6.670;2023-01-16T08:29:44;1.97;;;1.60;;
19016;SDS011;9641;51.494;6.670;2023-01-16T08:32:11;5.50;;;1.90;;
19016;SDS011;9641;51.494;6.670;2023-01-16T08:34:42;4.43;;;1.90;;
19016;SDS011;9641;51.494;6.670;2023-01-16T08:37:11;1.73;;;1.53;;
19016;SDS011;9641;51.494;6.670;2023-01-16T08:39:39;3.40;;;1.90;;
19016;SDS011;9641;51.494;6.670;2023-01-16T08:42:06;3.10;;;1.70;;
19016;SDS011;9641;51.494;6.670;2023-01-16T08:44:51;7.93;;;2.70;;
19016;SDS011;9641;51.494;6.670;2023-01-16T08:47:35;6.13;;;2.70;;
19016;SDS011;9641;51.494;6.670;2023-01-16T08:50:24;4.53;;;2.23;;
19016;SDS011;9641;51.494;6.670;2023-01-16T08:53:08;13.40;;;3.10;;
19016;SDS011;9641;51.494;6.670;2023-01-16T08:55:35;11.23;;;2.50;;
19016;SDS011;9641;51.494;6.670;2023-01-16T08:58:03;6.30;;;2.33;;
19016;SDS011;9641;51.494;6.670;2023-01-16T09:00:30;5.37;;;2.00;;
19016;SDS011;9641;51.494;6.670;2023-01-16T09:02:58;3.30;;;1.43;;
19016;SDS011;9641;51.494;6.670;2023-01-16T09:05:44;2.57;;;1.40;;
19016;SDS011;9641;51.494;6.670;2023-01-16T09:08:14;4.50;;;1.40;;
19016;SDS011;9641;51.494;6.670;2023-01-16T09:10:41;2.13;;;1.13;;
19016;SDS011;9641;51.494;6.670;2023-01-16T09:13:28;3.53;;;1.30;;
19016;SDS011;9641;51.494;6.670;2023-01-16T09:16:14;2.50;;;1.93;;
19016;SDS011;9641;51.494;6.670;2023-01-16T09:18:41;1.67;;;1.20;;
19016;SDS011;9641;51.494;6.670;2023-01-16T09:21:14;4.60;;;1.30;;
19016;SDS011;9641;51.494;6.670;2023-01-16T09:23:43;4.43;;;1.63;;
19016;SDS011;9641;51.494;6.670;2023-01-16T09:26:10;3.93;;;1.30;;
19016;SDS011;9641;51.494;6.670;2023-01-16T09:28:37;2.40;;;1.13;;
19016;SDS011;9641;51.494;6.670;2023-01-16T09:31:05;2.80;;;1.50;;
19016;SDS011;9641;51.494;6.670;2023-01-16T09:33:34;4.93;;;1.10;;
19016;SDS011;9641;51.494;6.670;2023-01-16T09:36:05;1.87;;;1.30;;
19016;SDS011;9641;51.494;6.670;2023-01-16T09:38:36;1.00;;;1.00;;
19016;SDS011;9641;51.494;6.670;2023-01-16T09:41:04;7.90;;;1.20;;
19016;SDS011;9641;51.494;6.670;2023-01-16T09:43:33;7.53;;;1.30;;
19016;SDS011;9641;51.494;6.670;2023-01-16T09:46:01;2.83;;;1.20;;
19016;SDS011;9641;51.494;6.670;2023-01-16T09:48:40;0.90;;;0.90;;
19016;SDS011;9641;51.494;6.670;2023-01-16T09:51:13;1.40;;;1.27;;
19016;SDS011;9641;51.494;6.670;2023-01-16T09:53:48;2.60;;;1.23;;
19016;SDS011;9641;51.494;6.670;2023-01-16T09:56:37;1.87;;;0.90;;
19016;SDS011;9641;51.494;6.670;2023-01-16T09:59:27;1.77;;;0.90;;
19016;SDS011;9641;51.494;6.670;2023-01-16T10:02:00;0.90;;;0.90;;
19016;SDS011;9641;51.494;6.670;2023-01-16T10:04:35;1.20;;;1.10;;
19016;SDS011;9641;51.494;6.670;2023-01-16T10:07:18;1.10;;;1.10;;
19016;SDS011;9641;51.494;6.670;2023-01-16T10:10:19;2.60;;;1.03;;
19016;SDS011;9641;51.494;6.670;2023-01-16T10:13:01;1.60;;;1.07;;
19016;SDS011;9641;51.494;6.670;2023-01-16T10:15:38;2.63;;;1.07;;
19016;SDS011;9641;51.494;6.670;2023-01-16T10:18:16;1.20;;;1.20;;
19016;SDS011;9641;51.494;6.670;2023-01-16T10:20:54;1.43;;;0.90;;
19016;SDS011;9641;51.494;6.670;2023-01-16T10:23:48;3.07;;;1.17;;
19016;SDS011;9641;51.494;6.670;2023-01-16T10:26:27;2.33;;;1.00;;
19016;SDS011;9641;51.494;6.670;2023-01-16T10:29:04;2.27;;;1.10;;
19016;SDS011;9641;51.494;6.670;2023-01-16T10:31:47;1.10;;;1.07;;
19016;SDS011;9641;51.494;6.670;2023-01-16T10:34:18;3.70;;;1.00;;
19016;SDS011;9641;51.494;6.670;2023-01-16T10:36:51;1.40;;;1.10;;
19016;SDS011;9641;51.494;6.670;2023-01-16T10:39:23;3.33;;;1.33;;
19016;SDS011;9641;51.494;6.670;2023-01-16T10:41:57;1.10;;;1.00;;
19016;SDS011;9641;51.494;6.670;2023-01-16T10:44:54;0.83;;;0.83;;
19016;SDS011;9641;51.494;6.670;2023-01-16T10:47:42;2.43;;;1.13;;
19016;SDS011;9641;51.494;6.670;2023-01-16T10:50:28;2.90;;;1.20;;
19016;SDS011;9641;51.494;6.670;2023-01-16T10:52:59;1.30;;;1.20;;
19016;SDS011;9641;51.494;6.670;2023-01-16T10:55:26;2.00;;;1.27;;
19016;SDS011;9641;51.494;6.670;2023-01-16T10:57:57;2.10;;;1.30;;
19016;SDS011;9641;51.494;6.670;2023-01-16T11:00:29;1.20;;;1.10;;
19016;SDS011;9641;51.494;6.670;2023-01-16T11:03:00;1.10;;;0.93;;
19016;SDS011;9641;51.494;6.670;2023-01-16T11:05:34;1.70;;;0.97;;
19016;SDS011;9641;51.494;6.670;2023-01-16T11:08:04;1.13;;;1.00;;
19016;SDS011;9641;51.494;6.670;2023-01-16T11:10:33;1.53;;;1.03;;
19016;SDS011;9641;51.494;6.670;2023-01-16T11:13:02;1.03;;;1.00;;
19016;SDS011;9641;51.494;6.670;2023-01-16T11:15:59;2.00;;;1.30;;
19016;SDS011;9641;51.494;6.670;2023-01-16T11:18:44;3.50;;;1.10;;
19016;SDS011;9641;51.494;6.670;2023-01-16T11:21:15;1.30;;;1.03;;
19016;SDS011;9641;51.494;6.670;2023-01-16T11:23:52;0.90;;;0.90;;
19016;SDS011;9641;51.494;6.670;2023-01-16T11:26:27;1.30;;;0.90;;
19016;SDS011;9641;51.494;6.670;2023-01-16T11:28:59;1.47;;;0.87;;
19016;SDS011;9641;51.494;6.670;2023-01-16T11:31:28;1.17;;;0.93;;
19016;SDS011;9641;51.494;6.670;2023-01-16T11:33:56;1.37;;;1.00;;
19016;SDS011;9641;51.494;6.670;2023-01-16T11:36:27;0.90;;;0.90;;
19016;SDS011;9641;51.494;6.670;2023-01-16T11:39:03;0.77;;;0.67;;
19016;SDS011;9641;51.494;6.670;2023-01-16T11:42:32;0.70;;;0.70;;
19016;SDS011;9641;51.494;6.670;2023-01-16T11:45:29;1.70;;;0.83;;
19016;SDS011;9641;51.494;6.670;2023-01-16T11:48:52;0.93;;;0.90;;
19016;SDS011;9641;51.494;6.670;2023-01-16T11:51:57;1.23;;;0.90;;
19016;SDS011;9641;51.494;6.670;2023-01-16T11:54:39;0.83;;;0.80;;
19016;SDS011;9641;51.494;6.670;2023-01-16T11:57:14;0.80;;;0.80;;
19016;SDS011;9641;51.494;6.670;2023-01-16T12:00:20;0.73;;;0.73;;
19016;SDS011;9641;51.494;6.670;2023-01-16T12:03:25;0.70;;;0.70;;
19016;SDS011;9641;51.494;6.670;2023-01-16T12:06:21;0.80;;;0.80;;
19016;SDS011;9641;51.494;6.670;2023-01-16T12:15:35;1.27;;;0.83;;
19016;SDS011;9641;51.494;6.670;2023-01-16T12:21:20;2.87;;;0.87;;
19016;SDS011;9641;51.494;6.670;2023-01-16T12:23:58;1.30;;;0.97;;
19016;SDS011;9641;51.494;6.670;2023-01-16T12:26:55;0.90;;;0.90;;
19016;SDS011;9641;51.494;6.670;2023-01-16T12:29:40;0.83;;;0.83;;
19016;SDS011;9641;51.494;6.670;2023-01-16T12:32:19;0.80;;;0.70;;
19016;SDS011;9641;51.494;6.670;2023-01-16T12:35:03;1.20;;;0.93;;
19016;SDS011;9641;51.494;6.670;2023-01-16T12:37:50;1.00;;;1.00;;
19016;SDS011;9641;51.494;6.670;2023-01-16T12:40:35;1.93;;;1.00;;
19016;SDS011;9641;51.494;6.670;2023-01-16T12:43:19;0.90;;;0.90;;
19016;SDS011;9641;51.494;6.670;2023-01-16T12:45:52;1.67;;;1.57;;
19016;SDS011;9641;51.494;6.670;2023-01-16T12:48:36;2.30;;;1.47;;
19016;SDS011;9641;51.494;6.670;2023-01-16T12:51:14;0.97;;;0.97;;
19016;SDS011;9641;51.494;6.670;2023-01-16T12:54:01;1.10;;;1.07;;
19016;SDS011;9641;51.494;6.670;2023-01-16T12:57:01;1.13;;;1.00;;
19016;SDS011;9641;51.494;6.670;2023-01-16T12:59:49;1.17;;;1.07;;
19016;SDS011;9641;51.494;6.670;2023-01-16T13:05:03;0.90;;;0.90;;
19016;SDS011;9641;51.494;6.670;2023-01-16T13:07:43;1.30;;;1.30;;
19016;SDS011;9641;51.494;6.670;2023-01-16T13:10:16;1.07;;;1.07;;
19016;SDS011;9641;51.494;6.670;2023-01-16T13:13:06;0.90;;;0.83;;
19016;SDS011;9641;51.494;6.670;2023-01-16T13:15:54;2.73;;;1.10;;
19016;SDS011;9641;51.494;6.670;2023-01-16T13:18:29;1.17;;;1.07;;
19016;SDS011;9641;51.494;6.670;2023-01-16T13:21:05;1.30;;;1.20;;
19016;SDS011;9641;51.494;6.670;2023-01-16T13:23:45;1.07;;;1.07;;
19016;SDS011;9641;51.494;6.670;2023-01-16T13:26:16;0.97;;;0.90;;
19016;SDS011;9641;51.494;6.670;2023-01-16T13:28:48;1.30;;;1.20;;
19016;SDS011;9641;51.494;6.670;2023-01-16T13:31:23;1.30;;;1.07;;
19016;SDS011;9641;51.494;6.670;2023-01-16T13:34:00;0.90;;;0.90;;
19016;SDS011;9641;51.494;6.670;2023-01-16T13:36:44;3.03;;;1.40;;
19016;SDS011;9641;51.494;6.670;2023-01-16T13:43:00;3.30;;;1.10;;
19016;SDS011;9641;51.494;6.670;2023-01-16T13:45:52;1.43;;;1.17;;
19016;SDS011;9641;51.494;6.670;2023-01-16T13:48:23;1.27;;;1.17;;
19016;SDS011;9641;51.494;6.670;2023-01-16T13:51:22;2.30;;;1.40;;
19016;SDS011;9641;51.494;6.670;2023-01-16T13:54:11;1.10;;;1.00;;
19016;SDS011;9641;51.494;6.670;2023-01-16T14:10:37;1.35;;;1.25;;
19016;SDS011;9641;51.494;6.670;2023-01-16T14:13:12;1.37;;;1.23;;
19016;SDS011;9641;51.494;6.670;2023-01-16T14:15:48;0.87;;;0.87;;
19016;SDS011;9641;51.494;6.670;2023-01-16T14:18:41;1.20;;;1.10;;
19016;SDS011;9641;51.494;6.670;2023-01-16T14:21:26;2.13;;;1.57;;
19016;SDS011;9641;51.494;6.670;2023-01-16T14:23:56;3.30;;;1.33;;
19016;SDS011;9641;51.494;6.670;2023-01-16T14:26:41;1.47;;;1.20;;
19016;SDS011;9641;51.494;6.670;2023-01-16T14:29:16;1.50;;;1.07;;
19016;SDS011;9641;51.494;6.670;2023-01-16T14:37:52;3.20;;;1.60;;
19016;SDS011;9641;51.494;6.670;2023-01-16T14:40:24;1.63;;;1.53;;
19016;SDS011;9641;51.494;6.670;2023-01-16T14:43:23;3.83;;;1.20;;
19016;SDS011;9641;51.494;6.670;2023-01-16T14:46:24;1.33;;;1.23;;
19016;SDS011;9641;51.494;6.670;2023-01-16T14:56:04;1.33;;;1.07;;
19016;SDS011;9641;51.494;6.670;2023-01-16T14:58:43;1.23;;;1.13;;
19016;SDS011;9641;51.494;6.670;2023-01-16T15:01:17;1.33;;;0.90;;
19016;SDS011;9641;51.494;6.670;2023-01-16T15:04:05;1.30;;;1.20;;
19016;SDS011;9641;51.494;6.670;2023-01-16T15:06:44;2.00;;;1.40;;
19016;SDS011;9641;51.494;6.670;2023-01-16T15:09:19;3.80;;;1.23;;
19016;SDS011;9641;51.494;6.670;2023-01-16T15:11:51;1.10;;;1.10;;
19016;SDS011;9641;51.494;6.670;2023-01-16T15:14:25;3.60;;;1.13;;
19016;SDS011;9641;51.494;6.670;2023-01-16T15:17:01;2.73;;;1.07;;
19016;SDS011;9641;51.494;6.670;2023-01-16T15:20:21;1.27;;;1.20;;
19016;SDS011;9641;51.494;6.670;2023-01-16T15:23:23;1.60;;;1.50;;
19016;SDS011;9641;51.494;6.670;2023-01-16T15:29:08;2.50;;;2.30;;
19016;SDS011;9641;51.494;6.670;2023-01-16T15:34:45;4.83;;;2.90;;
19016;SDS011;9641;51.494;6.670;2023-01-16T15:37:17;2.83;;;2.50;;
19016;SDS011;9641;51.494;6.670;2023-01-16T15:39:49;2.57;;;2.10;;
19016;SDS011;9641;51.494;6.670;2023-01-16T15:42:20;1.90;;;1.70;;
19016;SDS011;9641;51.494;6.670;2023-01-16T15:45:12;2.87;;;1.70;;
19016;SDS011;9641;51.494;6.670;2023-01-16T16:05:02;2.20;;;2.00;;
19016;SDS011;9641;51.494;6.670;2023-01-16T16:07:40;2.37;;;1.80;;
19016;SDS011;9641;51.494;6.670;2023-01-16T16:10:11;1.80;;;1.70;;
19016;SDS011;9641;51.494;6.670;2023-01-16T16:13:03;2.40;;;2.10;;
19016;SDS011;9641;51.494;6.670;2023-01-16T16:15:33;2.33;;;2.00;;
19016;SDS011;9641;51.494;6.670;2023-01-16T16:18:18;2.83;;;2.50;;
19016;SDS011;9641;51.494;6.670;2023-01-16T16:21:02;2.17;;;1.97;;
19016;SDS011;9641;51.494;6.670;2023-01-16T16:23:31;4.30;;;2.90;;
19016;SDS011;9641;51.494;6.670;2023-01-16T16:26:00;7.03;;;3.60;;
19016;SDS011;9641;51.494;6.670;2023-01-16T16:28:39;5.37;;;3.83;;
19016;SDS011;9641;51.494;6.670;2023-01-16T16:31:13;6.73;;;4.30;;
19016;SDS011;9641;51.494;6.670;2023-01-16T16:33:43;7.20;;;4.57;;
19016;SDS011;9641;51.494;6.670;2023-01-16T16:39:42;7.43;;;3.70;;
19016;SDS011;9641;51.494;6.670;2023-01-16T16:42:23;5.07;;;3.23;;
19016;SDS011;9641;51.494;6.670;2023-01-16T16:48:23;3.80;;;2.70;;
19016;SDS011;9641;51.494;6.670;2023-01-16T16:51:17;5.07;;;1.97;;
19016;SDS011;9641;51.494;6.670;2023-01-16T16:53:46;2.27;;;2.07;;
19016;SDS011;9641;51.494;6.670;2023-01-16T16:56:19;1.90;;;1.80;;
19016;SDS011;9641;51.494;6.670;2023-01-16T16:58:52;2.10;;;1.90;;
19016;SDS011;9641;51.494;6.670;2023-01-16T17:01:27;2.60;;;2.40;;
19016;SDS011;9641;51.494;6.670;2023-01-16T17:04:01;2.60;;;2.40;;
19016;SDS011;9641;51.494;6.670;2023-01-16T17:06:30;3.47;;;2.90;;